Latest Coastal Weather Observations for Low Isles

IDQ60701

Issued at 6:01 pm EST Sunday 23 April 2017 (issued every 10 minutes, with the page automatically refreshed every 10 minutes)

About coastal observations | Map of coastal stations | Coastal observations for QLD | Marine services | Other Formats
Station Details ID: 031037 Name: LOW ISLES LIGHTHOUSE Lat: -16.38 Lon: 145.56 Height: 2.9 m
Data from the previous 72 hours. | See also: Recent months at Low Isles
Date/Time
EST
Temp
°C
Wind Pressure Rain since
9am
mm
Weather Cloud Vis
km
Sea
Height
m
Swell
Dir  Spd
kts
Gust
kts
hPa Trend Height
m
Period
s
Dir
23/06:00pm 26.5 SE 19 22 1014.0 - 0.2 - - - - - - -
23/05:30pm 26.6 SE 20 23 1013.8 - 0.2 - - - - - - -
23/05:00pm 26.8 SE 18 22 1013.6 - 0.2 - - - - - - -
23/04:30pm 27.0 SE 17 19 1013.3 - 0.2 - - - - - - -
23/04:00pm 27.2 SE 16 19 1013.3 - 0.2 - - - - - - -
23/03:30pm 27.2 SSE 18 21 1013.5 - 0.2 - - - - - - -
23/03:00pm 27.8 SE 16 19 1013.6 - 0.2 - - - - - - -
23/02:30pm 27.9 SE 16 19 1014.0 - 0.2 - - - - - - -
23/02:00pm 28.9 SE 15 19 1014.3 - 0.2 - - - - - - -
23/01:30pm 29.1 SE 15 19 1014.6 - 0.2 - - - - - - -
23/01:00pm 28.8 SE 16 18 1014.8 - 0.2 - - - - - - -
23/12:30pm 28.8 SE 16 18 1015.2 - 0.2 - - - - - - -
23/12:00pm 28.6 SE 15 19 1015.7 - 0.2 - - - - - - -
23/11:30am 28.4 SE 16 19 1016.1 - 0.2 - - - - - - -
23/11:00am 27.9 ESE 17 21 1016.3 - 0.2 - - - - - - -
23/10:30am 27.3 ESE 18 22 1016.3 - 0.0 - - - - - - -
23/10:00am 27.2 SE 18 23 1016.1 - 0.0 - - - - - - -
23/09:30am 26.1 SE 19 23 1015.9 - 0.0 - - - - - - -
23/09:00am 25.5 S 17 19 1015.6 - 13.0 Distant precip. Mostly cloudy 10 - - - -
23/08:30am 25.6 S 17 19 1015.4 - 13.0 - - - - - - -
23/08:00am 25.5 SSE 16 18 1015.2 - 13.0 - - - - - - -
23/07:30am 25.5 SSE 17 19 1014.9 - 13.0 - - - - - - -
23/07:00am 25.4 S 16 18 1014.5 - 13.0 - - - - - - -
23/06:30am 25.6 SE 18 22 1014.1 - 13.0 - - - - - - -
23/06:00am 25.4 SSE 18 20 1013.6 - 13.0 - - - - - - -
23/05:30am 25.0 SSE 17 20 1013.5 - 13.0 - - - - - - -
23/05:00am 25.1 SSE 19 23 1013.4 - 13.0 - - - - - - -
23/04:30am 25.0 SSE 18 20 1013.3 - 13.0 - - - - - - -
23/04:00am 25.1 SSE 18 20 1013.4 - 13.0 - - - - - - -
23/03:30am 25.1 SSE 16 19 1013.4 - 13.0 - - - - - - -
23/03:00am 24.7 SSE 19 21 1013.5 - 13.0 - - - - - - -
23/02:30am 23.7 SSE 15 18 1013.8 - 13.0 - - - - - - -
23/02:00am 22.9 SE 18 23 1014.1 - 11.6 - - - - - - -
23/01:54am 22.9 SE 20 22 1014.2 - 11.4 - - - - - - -
23/01:47am 23.2 E 19 23 1014.1 - 11.0 - - - - - - -
23/01:40am 25.0 SE 21 25 1014.3 - 10.0 - - - - - - -
23/01:30am 25.2 S 19 21 1014.2 - 10.0 - - - - - - -
23/01:20am 25.5 SSE 19 21 1014.3 - 10.0 - - - - - - -
23/01:00am 25.6 SE 20 24 1014.5 - 10.0 - - - - - - -
23/12:30am 24.9 SE 17 21 1015.1 - 10.0 - - - - - - -
23/12:00am 25.7 SE 19 23 1015.3 - 10.0 - - - - - - -
 
Date/Time
EST
Temp
°C
Wind Pressure Rain since
9am
mm
Weather Cloud Vis
km
Sea
Height
m
Swell
Dir  Spd
kts
Gust
kts
hPa Trend Height
m
Period
s
Dir
22/11:30pm 25.7 SE 21 25 1015.4 - 10.0 - - - - - - -
22/11:00pm 25.7 SE 22 27 1015.5 - 10.0 - - - - - - -
22/10:30pm 25.3 SSE 20 24 1015.4 - 10.0 - - - - - - -
22/10:00pm 24.5 SSE 17 19 1015.8 - 9.8 - - - - - - -
22/09:30pm 24.6 SSE 19 23 1016.1 - 9.6 - - - - - - -
22/09:00pm 23.9 SSE 16 19 1016.0 - 9.6 - - - - - - -
22/08:30pm 23.4 SSE 12 14 1016.0 - 9.6 - - - - - - -
22/08:00pm 22.8 SE 17 21 1015.8 - 7.8 - - - - - - -
22/07:30pm 23.2 E 15 19 1015.3 - 7.4 - - - - - - -
22/07:00pm 23.9 SSE 19 23 1015.1 - 0.6 - - - - - - -
22/06:30pm 24.6 SE 23 26 1014.6 - 0.0 - - - - - - -
22/06:00pm 25.5 SSE 23 26 1014.0 - 0.0 - - - - - - -
22/05:30pm 26.2 SE 19 22 1013.8 - 0.0 - - - - - - -
22/05:00pm 26.5 SSE 20 22 1013.6 - 0.0 - - - - - - -
22/04:30pm 26.7 SE 19 22 1013.2 - 0.0 - - - - - - -
22/04:00pm 27.4 SE 17 20 1013.2 - 0.0 - - - - - - -
22/03:30pm 28.0 SE 16 19 1013.3 - 0.0 - - - - - - -
22/03:00pm 27.8 SE 19 23 1013.1 - 0.0 - - - - - - -
22/02:30pm 28.3 SE 20 23 1013.1 - 0.0 - - - - - - -
22/02:00pm 28.5 SE 20 24 1013.4 - 0.0 - - - - - - -
22/01:30pm 29.0 SE 19 24 1013.6 - 0.0 - - - - - - -
22/01:00pm 28.8 ESE 20 24 1013.8 - 0.0 - - - - - - -
22/12:30pm 28.7 SE 18 22 1014.0 - 0.0 - - - - - - -
22/12:00pm 28.9 SE 19 24 1014.3 - 0.0 - - - - - - -
22/11:30am 28.1 SE 18 22 1015.0 - 0.0 - - - - - - -
22/11:00am 26.9 SE 20 24 1015.4 - 0.0 - - - - - - -
22/10:30am 27.0 SE 19 25 1015.5 - 0.0 - - - - - - -
22/10:00am 27.5 ESE 17 23 1015.7 - 0.0 - - - - - - -
22/09:30am 27.5 ESE 19 25 1015.5 - 0.0 - - - - - - -
22/09:00am 26.9 ESE 19 23 1015.1 - 1.4 Distant precip. Mostly cloudy 10 - - - -
22/08:30am 26.7 ESE 19 25 1015.0 - 1.4 - - - - - - -
22/08:00am 26.4 ESE 18 23 1014.7 - 1.4 - - - - - - -
22/07:30am 26.0 ESE 19 23 1014.4 - 1.4 - - - - - - -
22/07:00am 26.2 ESE 19 23 1013.9 - 1.4 - - - - - - -
22/06:30am 25.9 ESE 19 24 1013.6 - 1.4 - - - - - - -
22/06:00am 25.6 ESE 19 26 1013.2 - 1.4 - - - - - - -
22/05:30am 24.8 ESE 17 25 1013.1 - 1.4 - - - - - - -
22/05:16am 26.2 SE 21 31 1013.2 - 1.0 - - - - - - -
22/05:00am 26.2 SE 19 25 1012.9 - 1.0 - - - - - - -
22/04:30am 25.8 ESE 19 27 1012.8 - 1.0 - - - - - - -
22/04:00am 26.0 ESE 20 25 1012.8 - 1.0 - - - - - - -
22/03:30am 26.0 SE 21 26 1012.9 - 1.0 - - - - - - -
22/03:10am 25.9 SE 22 33 1013.0 - 1.0 - - - - - - -
22/03:00am 26.1 SE 20 27 1012.9 - 1.0 - - - - - - -
22/02:39am 26.0 SE 21 24 1013.2 - 1.0 - - - - - - -
22/02:32am 25.9 SSE 23 26 1013.2 - 1.0 - - - - - - -
22/02:30am 26.2 SE 21 26 1013.2 - 1.0 - - - - - - -
22/02:03am 25.6 SSE 20 30 1013.4 - 1.0 - - - - - - -
22/02:00am 25.5 SSE 21 30 1013.4 - 1.0 - - - - - - -
22/01:30am 26.4 SE 21 26 1013.7 - 1.0 - - - - - - -
22/01:00am 26.4 SE 20 26 1014.3 - 1.0 - - - - - - -
22/12:30am 26.4 SE 21 27 1014.6 - 1.0 - - - - - - -
22/12:00am 26.5 SE 23 29 1014.8 - 1.0 - - - - - - -
 
Date/Time
EST
Temp
°C
Wind Pressure Rain since
9am
mm
Weather Cloud Vis
km
Sea
Height
m
Swell
Dir  Spd
kts
Gust
kts
hPa Trend Height
m
Period
s
Dir
21/11:30pm 26.4 SE 23 27 1014.8 - 1.0 - - - - - - -
21/11:00pm 26.4 SE 23 27 1015.1 - 1.0 - - - - - - -
21/10:41pm 25.9 SE 21 25 1015.2 - 1.0 - - - - - - -
21/10:30pm 25.8 SSE 17 19 1015.3 - 1.0 - - - - - - -
21/10:00pm 26.0 SSE 17 20 1015.3 - 1.0 - - - - - - -
21/09:30pm 26.3 SE 23 27 1015.4 - 1.0 - - - - - - -
21/09:00pm 26.2 SE 20 23 1015.3 - 1.0 - - - - - - -
21/08:30pm 25.8 SSE 20 23 1015.4 - 1.0 - - - - - - -
21/08:00pm 26.0 SSE 20 22 1015.1 - 1.0 - - - - - - -
21/07:30pm 26.0 SSE 19 23 1014.7 - 1.0 - - - - - - -
21/07:00pm 25.8 SSE 17 20 1014.5 - 0.8 - - - - - - -
21/06:30pm 25.5 SSE 19 22 1014.3 - 0.6 - - - - - - -
21/06:00pm 25.8 SSE 21 23 1013.9 - 0.6 - - - - - - -
21/05:30pm 25.1 SSE 22 25 1013.8 - 0.6 - - - - - - -
21/05:00pm 25.4 SSE 24 27 1013.6 - 0.6 - - - - - - -
21/04:30pm 25.8 SSE 23 26 1013.4 - 0.6 - - - - - - -
21/04:00pm 26.0 SSE 23 27 1013.2 - 0.6 - - - - - - -
21/03:30pm 26.3 SSE 24 27 1013.4 - 0.6 - - - - - - -
21/03:00pm 26.5 SSE 25 28 1013.2 - 0.6 - - - - - - -
21/02:30pm 26.7 SSE 23 26 1013.5 - 0.6 - - - - - - -
21/02:00pm 26.4 SSE 22 25 1013.9 - 0.6 - - - - - - -
21/01:30pm 26.8 SE 21 26 1014.1 - 0.6 - - - - - - -
21/01:00pm 27.4 SSE 21 24 1014.1 - 0.6 - - - - - - -
21/12:30pm 27.5 SE 22 25 1014.3 - 0.6 - - - - - - -
21/12:00pm 27.2 SE 21 27 1014.6 - 0.6 - - - - - - -
21/11:50am 26.2 ESE 17 23 1014.8 - 0.6 - - - - - - -
21/11:33am 26.6 E 21 25 1015.1 - 0.6 - - - - - - -
21/11:30am 26.8 ESE 22 28 1015.1 - 0.6 - - - - - - -
21/11:00am 27.0 SE 20 25 1015.5 - 0.6 - - - - - - -
21/10:30am 25.9 ESE 19 24 1015.6 - 0.6 - - - - - - -
21/10:00am 24.9 ESE 22 30 1016.0 - 0.6 - - - - - - -
21/09:37am 25.5 E 21 26 1015.8 - 0.0 - - - - - - -
21/09:30am 25.8 ESE 21 27 1015.7 - 0.0 - - - - - - -
21/09:00am 24.9 SE 24 29 1015.3 - 4.6 Distant precip. Cloudy 8 - - - -
21/08:45am 24.6 SE 23 28 1015.3 - 4.6 - - - - - - -
21/08:43am 25.0 ESE 21 31 1015.3 - 4.0 - - - - - - -
21/08:39am 25.5 E 20 24 1015.3 - 3.6 - - - - - - -
21/08:30am 26.1 SE 23 27 1015.0 - 2.2 - - - - - - -
21/08:00am 26.2 SE 22 27 1014.8 - 2.2 - - - - - - -
21/07:55am 26.2 SE 23 26 1014.8 - 2.2 - - - - - - -
21/07:30am 25.5 SSE 19 23 1014.7 - 2.2 - - - - - - -
21/07:00am 24.9 SSE 21 25 1014.4 - 2.2 - - - - - - -
21/06:45am 25.4 SE 20 30 1014.1 - 1.8 - - - - - - -
21/06:30am 25.6 SE 20 27 1013.9 - 1.6 - - - - - - -
21/06:00am 25.0 SSE 21 25 1013.4 - 1.6 - - - - - - -
21/05:30am 25.3 SSE 20 23 1013.1 - 0.4 - - - - - - -
21/05:00am 25.6 SSE 21 25 1013.0 - 0.2 - - - - - - -
21/04:30am 25.4 SSE 23 28 1012.9 - 0.0 - - - - - - -
21/04:00am 25.6 SSE 20 24 1012.9 - 0.0 - - - - - - -
21/03:30am 25.5 SSE 21 26 1013.0 - 0.0 - - - - - - -
21/03:00am 25.4 SSE 19 24 1013.0 - 0.0 - - - - - - -
21/02:30am 25.5 SSE 20 23 1013.4 - 0.0 - - - - - - -
21/02:00am 25.3 SSE 17 20 1013.8 - 0.0 - - - - - - -
21/01:30am 25.5 S 18 21 1014.3 - 0.0 - - - - - - -
21/01:00am 25.6 SSE 20 23 1014.6 - 0.0 - - - - - - -
21/12:30am 25.7 SSE 17 20 1014.8 - 0.0 - - - - - - -
21/12:00am 25.6 SSE 19 21 1015.0 - 0.0 - - - - - - -
 
Date/Time
EST
Temp
°C
Wind Pressure Rain since
9am
mm
Weather Cloud Vis
km
Sea
Height
m
Swell
Dir  Spd
kts
Gust
kts
hPa Trend Height
m
Period
s
Dir
20/11:30pm 25.6 SSE 18 20 1015.3 - 0.0 - - - - - - -
20/11:00pm 25.8 SSE 21 24 1015.3 - 0.0 - - - - - - -
20/10:30pm 25.7 SSE 19 22 1015.5 - 0.0 - - - - - - -
20/10:00pm 25.7 SSE 19 22 1015.7 - 0.0 - - - - - - -
20/09:30pm 25.7 SSE 20 23 1015.8 - 0.0 - - - - - - -
20/09:00pm 25.8 SSE 20 23 1015.6 - 0.0 - - - - - - -
20/08:30pm 25.9 SSE 23 27 1015.4 - 0.0 - - - - - - -
20/08:00pm 26.0 SSE 20 23 1015.4 - 0.0 - - - - - - -
20/07:30pm 26.2 SSE 20 24 1015.1 - 0.0 - - - - - - -
20/07:00pm 26.3 SSE 22 26 1014.8 - 0.0 - - - - - - -
20/06:30pm 26.3 SE 23 26 1014.6 - 0.0 - - - - - - -

Other Formats:

Comma delimited format used in spreadsheet applications
http://www.bom.gov.au/fwo/IDQ60701/IDQ60701.94285.axf

JavaScript Object Notation format (JSON) in row-major order
http://www.bom.gov.au/fwo/IDQ60701/IDQ60701.94285.json